createdAt,value
2019-05-18T00:01:33.028Z,97.60
2019-05-18T00:07:34.770Z,98.60
2019-05-18T00:13:36.366Z,98.70
2019-05-18T00:19:37.861Z,98.10
2019-05-18T00:25:40.355Z,98.30
2019-05-18T00:31:42.638Z,98.20
2019-05-18T00:37:44.183Z,98.20
2019-05-18T00:43:45.620Z,98.00
2019-05-18T00:49:47.189Z,97.80
2019-05-18T00:55:49.884Z,98.00
2019-05-18T01:01:51.347Z,97.90
2019-05-18T01:07:52.850Z,98.20
2019-05-18T01:13:54.309Z,98.40
2019-05-18T01:19:55.928Z,98.20
2019-05-18T01:25:57.429Z,98.10
2019-05-18T01:31:59.075Z,97.80
2019-05-18T01:38:00.660Z,97.80
2019-05-18T01:44:02.324Z,98.40
2019-05-18T01:50:04.320Z,98.40
2019-05-18T01:56:06.001Z,98.50
2019-05-18T02:02:07.702Z,98.10
2019-05-18T02:08:09.163Z,98.40
2019-05-18T02:14:10.795Z,98.30
2019-05-18T02:20:12.712Z,98.30
2019-05-18T02:26:14.935Z,98.30
2019-05-18T02:32:16.570Z,98.50
2019-05-18T02:38:19.113Z,98.60
2019-05-18T02:44:20.647Z,98.30
2019-05-18T02:50:22.207Z,98.10
2019-05-18T02:56:23.755Z,98.20
2019-05-18T03:02:25.174Z,98.70
2019-05-18T03:08:26.825Z,99.70
2019-05-18T03:14:28.599Z,99.90
2019-05-18T03:20:30.221Z,99.90
2019-05-18T03:26:31.701Z,99.90
2019-05-18T03:32:33.254Z,99.90
2019-05-18T03:38:34.695Z,99.90
2019-05-18T03:44:37.393Z,99.90
2019-05-18T03:50:38.962Z,99.80
2019-05-18T03:56:40.493Z,99.60
2019-05-18T04:02:41.979Z,99.60
2019-05-18T04:08:43.464Z,99.60
2019-05-18T04:14:44.921Z,99.50
2019-05-18T04:20:46.393Z,99.40
2019-05-18T04:26:47.868Z,99.30
2019-05-18T04:32:49.337Z,98.70
2019-05-18T04:38:50.765Z,99.00
2019-05-18T04:44:52.258Z,99.30
2019-05-18T04:50:53.703Z,98.80
2019-05-18T04:56:55.268Z,98.30
2019-05-18T05:02:56.724Z,96.80
2019-05-18T05:08:58.173Z,95.90
2019-05-18T05:14:59.726Z,95.30
2019-05-18T05:21:01.181Z,95.70
2019-05-18T05:27:02.790Z,95.30
2019-05-18T05:33:04.238Z,93.90
2019-05-18T05:39:05.863Z,94.60
2019-05-18T05:45:07.890Z,94.30
2019-05-18T05:51:09.416Z,94.60
2019-05-18T05:57:10.861Z,94.10
2019-05-18T06:03:12.306Z,91.50
2019-05-18T06:09:13.774Z,91.80
2019-05-18T06:15:16.627Z,91.60
2019-05-18T06:21:18.236Z,90.70
2019-05-18T06:27:19.831Z,90.90
2019-05-18T06:33:21.298Z,91.30
2019-05-18T06:39:22.773Z,91.50
2019-05-18T06:45:24.339Z,92.10
2019-05-18T06:51:25.826Z,92.50
2019-05-18T06:57:28.227Z,91.70
2019-05-18T07:03:29.844Z,91.20
2019-05-18T07:09:31.460Z,91.20
2019-05-18T07:15:33.030Z,91.10
2019-05-18T07:21:34.853Z,90.60
2019-05-18T07:27:36.584Z,90.00
2019-05-18T07:33:38.075Z,89.20
2019-05-18T07:39:39.552Z,85.90
2019-05-18T07:45:41.143Z,83.20
2019-05-18T07:51:42.588Z,84.40
2019-05-18T07:57:44.148Z,80.10
2019-05-18T08:03:45.623Z,76.40
2019-05-18T08:09:51.940Z,78.10
2019-05-18T08:15:55.446Z,77.70
2019-05-18T08:21:58.192Z,77.20
2019-05-18T08:27:59.754Z,70.40
2019-05-18T08:34:01.290Z,71.00
2019-05-18T08:40:05.171Z,68.40
2019-05-18T08:46:07.718Z,69.70
2019-05-18T08:52:11.242Z,71.80
2019-05-18T08:58:14.737Z,66.30
2019-05-18T09:04:16.363Z,69.50
2019-05-18T09:10:18.128Z,65.70
2019-05-18T09:16:19.624Z,62.00
2019-05-18T09:22:23.134Z,65.30
2019-05-18T09:28:24.367Z,68.10
2019-05-18T09:34:25.956Z,65.50
2019-05-18T09:40:44.484Z,65.60
2019-05-18T09:46:45.911Z,62.80
2019-05-18T09:59:03.298Z,58.10
2019-05-18T10:05:07.239Z,57.80
2019-05-18T10:11:08.963Z,59.40
2019-05-18T10:17:10.518Z,59.00
2019-05-18T10:23:13.866Z,58.40
2019-05-18T10:29:15.496Z,57.50
2019-05-18T10:35:17.063Z,57.70
2019-05-18T10:41:18.603Z,58.40
2019-05-18T10:47:20.067Z,56.60
2019-05-18T10:53:28.804Z,56.90
2019-05-18T10:59:24.868Z,56.50
2019-05-18T11:05:26.479Z,53.60
2019-05-18T11:11:28.079Z,53.50
2019-05-18T11:17:29.728Z,54.40
2019-05-18T11:23:42.868Z,56.60
2019-05-18T11:29:34.597Z,55.30
2019-05-18T11:35:36.211Z,53.80
2019-05-18T11:41:37.712Z,55.70
2019-05-18T11:47:39.387Z,53.70
2019-05-18T11:53:40.958Z,55.70
2019-05-18T11:59:42.547Z,52.90
2019-05-18T12:05:44.015Z,53.90
2019-05-18T12:11:45.571Z,50.40
2019-05-18T12:17:47.080Z,53.40
2019-05-18T12:23:48.618Z,51.10
2019-05-18T12:29:50.030Z,53.30
2019-05-18T12:35:51.627Z,52.20
2019-05-18T12:41:53.114Z,53.50
2019-05-18T12:47:54.557Z,50.30
2019-05-18T12:53:56.264Z,54.30
2019-05-18T12:59:57.765Z,50.80
2019-05-18T13:05:59.199Z,50.70
2019-05-18T13:12:02.824Z,50.10
2019-05-18T13:18:05.116Z,50.50
2019-05-18T13:24:06.616Z,52.10
2019-05-18T13:30:10.191Z,47.60
2019-05-18T13:36:14.245Z,50.20
2019-05-18T13:42:16.441Z,50.00
2019-05-18T13:48:19.766Z,49.40
2019-05-18T13:54:22.392Z,50.10
2019-05-18T14:00:24.437Z,48.70
2019-05-18T14:06:26.023Z,50.30
2019-05-18T14:12:27.497Z,47.20
2019-05-18T14:18:28.953Z,48.30
2019-05-18T14:24:30.580Z,47.20
2019-05-18T14:30:32.170Z,46.40
2019-05-18T14:36:33.637Z,46.90
2019-05-18T14:42:35.288Z,46.30
2019-05-18T14:48:36.942Z,47.20
2019-05-18T14:54:38.527Z,48.70
2019-05-18T15:00:40.085Z,47.80
2019-05-18T15:06:41.570Z,48.20
2019-05-18T15:12:43.042Z,45.60
2019-05-18T15:18:44.492Z,44.80
2019-05-18T15:24:46.013Z,45.40
2019-05-18T15:30:47.525Z,42.50
2019-05-18T15:36:49.088Z,44.20
2019-05-18T15:42:50.501Z,44.90
2019-05-18T15:48:52.119Z,41.60
2019-05-18T15:54:53.761Z,42.70
2019-05-18T16:00:55.190Z,41.40
2019-05-18T16:06:56.770Z,41.00
2019-05-18T16:12:58.396Z,41.20
2019-05-18T16:18:59.829Z,40.40
2019-05-18T16:25:01.513Z,40.50
2019-05-18T16:31:03.005Z,39.60
2019-05-18T16:37:04.491Z,38.60
2019-05-18T16:43:06.029Z,40.10
2019-05-18T16:49:07.668Z,37.60
2019-05-18T16:55:09.429Z,38.70
2019-05-18T17:01:10.928Z,39.20
2019-05-18T17:07:12.669Z,39.60
2019-05-18T17:13:14.284Z,37.80
2019-05-18T17:19:16.512Z,37.80
2019-05-18T17:25:27.566Z,37.50
2019-05-18T17:31:31.474Z,36.50
2019-05-18T17:37:33.080Z,37.90
2019-05-18T17:43:34.794Z,37.50
2019-05-18T17:49:36.265Z,38.10
2019-05-18T17:55:37.710Z,39.40
2019-05-18T18:01:39.333Z,37.20
2019-05-18T18:07:40.833Z,38.70
2019-05-18T18:13:42.296Z,40.50
2019-05-18T18:19:43.796Z,45.20
2019-05-18T18:25:45.445Z,50.50
2019-05-18T18:31:46.988Z,53.70
2019-05-18T18:37:48.498Z,57.50
2019-05-18T18:43:50.193Z,59.40
2019-05-18T18:49:51.782Z,65.20
2019-05-18T18:55:54.224Z,69.10
2019-05-18T19:01:56.040Z,71.80
2019-05-18T19:07:57.597Z,74.90
2019-05-18T19:13:59.073Z,79.30
2019-05-18T19:20:00.571Z,80.00
2019-05-18T19:26:02.147Z,82.40
2019-05-18T19:32:03.595Z,83.70
2019-05-18T19:38:05.229Z,86.00
2019-05-18T19:44:06.691Z,86.60
2019-05-18T19:50:08.556Z,87.80
2019-05-18T19:56:10.120Z,88.80
2019-05-18T20:02:11.673Z,90.00
2019-05-18T20:08:13.151Z,90.90
2019-05-18T20:14:14.684Z,91.50
2019-05-18T20:20:17.311Z,91.60
2019-05-18T20:26:19.306Z,91.60
2019-05-18T20:32:21.153Z,91.40
2019-05-18T20:38:22.775Z,90.70
2019-05-18T20:44:24.547Z,90.60
2019-05-18T20:50:26.031Z,91.20
2019-05-18T20:56:27.573Z,92.50
2019-05-18T21:02:29.422Z,92.90
2019-05-18T21:08:35.576Z,92.70
2019-05-18T21:14:37.554Z,92.30
2019-05-18T21:20:39.212Z,92.10
2019-05-18T21:26:40.715Z,92.30
2019-05-18T21:32:42.173Z,92.30
2019-05-18T21:38:43.709Z,92.70
2019-05-18T21:44:51.577Z,93.30
2019-05-18T21:50:53.179Z,93.90
2019-05-18T21:56:54.783Z,94.30
2019-05-18T22:02:56.384Z,94.30
2019-05-18T22:08:57.967Z,94.30
2019-05-18T22:14:59.481Z,94.40
2019-05-18T22:21:01.144Z,93.80
2019-05-18T22:27:09.345Z,93.70
2019-05-18T22:33:11.069Z,94.30
2019-05-18T22:39:17.757Z,94.50
2019-05-18T22:45:20.808Z,95.40
2019-05-18T22:51:22.279Z,95.60
2019-05-18T22:57:27.437Z,95.60
2019-05-18T23:03:31.831Z,95.30
2019-05-18T23:09:33.670Z,95.70
2019-05-18T23:15:35.355Z,95.30
2019-05-18T23:21:36.919Z,95.00
2019-05-18T23:27:38.410Z,95.70
2019-05-18T23:33:39.963Z,96.10
2019-05-18T23:39:42.672Z,96.30
2019-05-18T23:45:44.228Z,96.20
2019-05-18T23:51:45.750Z,96.00
2019-05-18T23:57:47.237Z,95.50
